KLM9861 EHAM-EINN
Flight info
| Callsign | KLM9861 |
|---|---|
| Flight time | 1h 17m |
| Altitude | 38000 |
| Route | BERGI L60 PENIL DCT BAGSO DCT DIGAN DIGAN2E |
| Aircraft | B77W/H-SDE1E2E3FGHIJ2J3J4J5M1RWXY/LB1D1 |
Departure
| Time | 2026-04-29 15:39 |
|---|---|
| Airport | Amsterdam Airport Schiphol (EHAM) |
Arrival
| Time | 2026-04-29 16:56 |
|---|---|
| Airport | Shannon Airport (EINN) |
| Time | Latitude | Longitude | Altitude | Speed | Heading |
|---|---|---|---|---|---|
| 2026-04-29 15:20 | 52.31364 | 4.75813 | 2 ft | 0 kts | 266° |
| 2026-04-29 15:30 | 52.31365 | 4.75822 | 2 ft | 4 kts | 266° |
| 2026-04-29 15:31 | 52.31365 | 4.75866 | 2 ft | 4 kts | 267° |
| 2026-04-29 15:31 | 52.31367 | 4.75895 | 2 ft | 4 kts | 295° |
| 2026-04-29 15:31 | 52.31358 | 4.75919 | 5 ft | 4 kts | 319° |
| 2026-04-29 15:31 | 52.31341 | 4.75933 | 5 ft | 4 kts | 356° |
| 2026-04-29 15:32 | 52.31316 | 4.75934 | 5 ft | 2 kts | 357° |
| 2026-04-29 15:32 | 52.31315 | 4.75934 | 5 ft | 0 kts | 357° |
| 2026-04-29 15:34 | 52.31390 | 4.75928 | 2 ft | 20 kts | 357° |
| 2026-04-29 15:35 | 52.31508 | 4.75895 | 2 ft | 14 kts | 317° |
| 2026-04-29 15:35 | 52.31522 | 4.75742 | 2 ft | 14 kts | 270° |
| 2026-04-29 15:35 | 52.31518 | 4.75577 | 2 ft | 15 kts | 266° |
| 2026-04-29 15:35 | 52.31511 | 4.75401 | 2 ft | 16 kts | 266° |
| 2026-04-29 15:36 | 52.31505 | 4.75219 | 2 ft | 17 kts | 266° |
| 2026-04-29 15:36 | 52.31498 | 4.75026 | 2 ft | 17 kts | 266° |
| 2026-04-29 15:36 | 52.31491 | 4.74829 | 2 ft | 18 kts | 266° |
| 2026-04-29 15:36 | 52.31526 | 4.74673 | 3 ft | 16 kts | 342° |
| 2026-04-29 15:37 | 52.31640 | 4.74679 | 3 ft | 17 kts | 24° |
| 2026-04-29 15:37 | 52.31670 | 4.74853 | 2 ft | 17 kts | 88° |
| 2026-04-29 15:37 | 52.31676 | 4.75044 | 0 ft | 10 kts | 86° |
| 2026-04-29 15:37 | 52.31676 | 4.75048 | 0 ft | 0 kts | 86° |
| 2026-04-29 15:39 | 52.31679 | 4.75119 | 1 ft | 28 kts | 86° |
| 2026-04-29 15:39 | 52.31714 | 4.75985 | 2 ft | 123 kts | 86° |
| 2026-04-29 15:39 | 52.31771 | 4.77790 | 188 ft | 180 kts | 84° |
| 2026-04-29 15:39 | 52.31856 | 4.79861 | 1146 ft | 183 kts | 85° |
| 2026-04-29 15:40 | 52.31925 | 4.81878 | 2312 ft | 180 kts | 84° |
| 2026-04-29 15:40 | 52.32375 | 4.83929 | 2690 ft | 212 kts | 52° |
| 2026-04-29 15:40 | 52.33787 | 4.85128 | 3133 ft | 251 kts | 12° |
| 2026-04-29 15:40 | 52.35580 | 4.84701 | 4044 ft | 270 kts | 339° |
| 2026-04-29 15:41 | 52.37143 | 4.82890 | 5176 ft | 281 kts | 318° |
| 2026-04-29 15:41 | 52.38497 | 4.80580 | 6047 ft | 287 kts | 320° |
| 2026-04-29 15:41 | 52.39920 | 4.78275 | 7117 ft | 288 kts | 313° |
| 2026-04-29 15:41 | 52.41177 | 4.75663 | 8124 ft | 293 kts | 312° |
| 2026-04-29 15:42 | 52.42488 | 4.73101 | 9220 ft | 293 kts | 315° |
| 2026-04-29 15:42 | 52.43878 | 4.70662 | 10203 ft | 298 kts | 318° |
| 2026-04-29 15:42 | 52.45344 | 4.68217 | 11032 ft | 306 kts | 319° |
| 2026-04-29 15:42 | 52.46984 | 4.65810 | 11314 ft | 325 kts | 332° |
| 2026-04-29 15:43 | 52.49112 | 4.64260 | 11533 ft | 347 kts | 343° |
| 2026-04-29 15:43 | 52.51457 | 4.62861 | 11938 ft | 372 kts | 343° |
| 2026-04-29 15:43 | 52.53922 | 4.61348 | 12905 ft | 380 kts | 342° |
| 2026-04-29 15:43 | 52.56409 | 4.59775 | 14076 ft | 385 kts | 342° |
| 2026-04-29 15:44 | 52.58927 | 4.58152 | 15084 ft | 390 kts | 342° |
| 2026-04-29 15:44 | 52.61477 | 4.56493 | 16016 ft | 398 kts | 342° |
| 2026-04-29 15:44 | 52.64052 | 4.54814 | 16932 ft | 405 kts | 342° |
| 2026-04-29 15:44 | 52.66669 | 4.53018 | 17780 ft | 411 kts | 336° |
| 2026-04-29 15:45 | 52.69006 | 4.50140 | 18509 ft | 431 kts | 315° |
| 2026-04-29 15:45 | 52.70767 | 4.46073 | 19234 ft | 439 kts | 306° |
| 2026-04-29 15:45 | 52.72448 | 4.41806 | 19987 ft | 446 kts | 307° |
| 2026-04-29 15:45 | 52.74198 | 4.37542 | 20842 ft | 449 kts | 307° |
| 2026-04-29 15:46 | 52.75723 | 4.33071 | 21645 ft | 457 kts | 295° |
| 2026-04-29 15:46 | 52.76815 | 4.28085 | 22436 ft | 464 kts | 290° |
| 2026-04-29 15:46 | 52.77781 | 4.22957 | 23201 ft | 470 kts | 288° |
| 2026-04-29 15:46 | 52.78729 | 4.17750 | 23964 ft | 475 kts | 288° |
| 2026-04-29 15:47 | 52.79689 | 4.12563 | 24616 ft | 479 kts | 289° |
| 2026-04-29 15:47 | 52.80696 | 4.07282 | 25280 ft | 483 kts | 289° |
| 2026-04-29 15:47 | 52.81736 | 4.01957 | 25931 ft | 486 kts | 289° |
| 2026-04-29 15:47 | 52.82782 | 3.96680 | 26544 ft | 490 kts | 290° |
| 2026-04-29 15:48 | 52.83854 | 3.91308 | 27151 ft | 494 kts | 290° |
| 2026-04-29 15:48 | 52.84939 | 3.85872 | 27735 ft | 498 kts | 290° |
| 2026-04-29 15:48 | 52.86032 | 3.80371 | 28305 ft | 502 kts | 290° |
| 2026-04-29 15:48 | 52.87112 | 3.74913 | 28843 ft | 506 kts | 289° |
| 2026-04-29 15:49 | 52.88208 | 3.69350 | 29354 ft | 509 kts | 289° |
| 2026-04-29 15:49 | 52.89311 | 3.63734 | 29836 ft | 513 kts | 289° |
| 2026-04-29 15:49 | 52.90414 | 3.58095 | 30297 ft | 516 kts | 289° |
| 2026-04-29 15:49 | 52.91521 | 3.52417 | 30775 ft | 516 kts | 289° |
| 2026-04-29 15:50 | 52.92611 | 3.46808 | 31297 ft | 515 kts | 289° |
| 2026-04-29 15:50 | 52.93706 | 3.41162 | 31874 ft | 513 kts | 289° |
| 2026-04-29 15:50 | 52.94792 | 3.35540 | 32427 ft | 511 kts | 289° |
| 2026-04-29 15:50 | 52.95878 | 3.29910 | 32957 ft | 510 kts | 289° |
| 2026-04-29 15:51 | 52.96960 | 3.24293 | 33454 ft | 509 kts | 289° |
| 2026-04-29 15:51 | 52.98019 | 3.18767 | 33958 ft | 508 kts | 289° |
| 2026-04-29 15:51 | 52.99090 | 3.13153 | 34456 ft | 507 kts | 289° |
| 2026-04-29 15:51 | 53.00150 | 3.07570 | 34899 ft | 505 kts | 289° |
| 2026-04-29 15:52 | 53.01192 | 3.02059 | 35334 ft | 503 kts | 289° |
| 2026-04-29 15:52 | 53.02241 | 2.96498 | 35778 ft | 502 kts | 289° |
| 2026-04-29 15:52 | 53.03283 | 2.90962 | 36195 ft | 501 kts | 289° |
| 2026-04-29 15:52 | 53.04321 | 2.85434 | 36593 ft | 500 kts | 289° |
| 2026-04-29 15:53 | 53.05341 | 2.79983 | 36975 ft | 499 kts | 289° |
| 2026-04-29 15:53 | 53.06372 | 2.74458 | 37385 ft | 497 kts | 289° |
| 2026-04-29 15:53 | 53.07394 | 2.68965 | 37762 ft | 496 kts | 289° |
| 2026-04-29 15:53 | 53.08417 | 2.63456 | 38113 ft | 496 kts | 289° |
| 2026-04-29 15:54 | 53.09423 | 2.58025 | 38350 ft | 498 kts | 289° |
| 2026-04-29 15:54 | 53.11243 | 2.46812 | 38387 ft | 502 kts | 281° |
| 2026-04-29 15:55 | 53.12207 | 2.35395 | 38391 ft | 497 kts | 278° |
| 2026-04-29 15:55 | 53.13065 | 2.23992 | 38390 ft | 495 kts | 278° |
| 2026-04-29 15:56 | 53.13946 | 2.12591 | 38395 ft | 494 kts | 278° |
| 2026-04-29 15:56 | 53.14839 | 2.01293 | 38396 ft | 495 kts | 278° |
| 2026-04-29 15:57 | 53.15740 | 1.89873 | 38394 ft | 496 kts | 278° |
| 2026-04-29 15:57 | 53.16622 | 1.78514 | 38399 ft | 498 kts | 278° |
| 2026-04-29 15:58 | 53.17502 | 1.67019 | 38400 ft | 499 kts | 277° |
| 2026-04-29 15:58 | 53.18367 | 1.55574 | 38401 ft | 500 kts | 277° |
| 2026-04-29 15:59 | 53.19229 | 1.44001 | 38394 ft | 501 kts | 277° |
| 2026-04-29 15:59 | 53.20073 | 1.32522 | 38398 ft | 502 kts | 277° |
| 2026-04-29 16:00 | 53.20913 | 1.20936 | 38397 ft | 502 kts | 277° |
| 2026-04-29 16:00 | 53.21742 | 1.09347 | 38396 ft | 502 kts | 277° |
| 2026-04-29 16:01 | 53.22553 | 0.97856 | 38402 ft | 501 kts | 276° |
| 2026-04-29 16:01 | 53.23357 | 0.86300 | 38402 ft | 501 kts | 276° |
| 2026-04-29 16:02 | 53.24149 | 0.74739 | 38403 ft | 501 kts | 276° |
| 2026-04-29 16:02 | 53.24931 | 0.63176 | 38397 ft | 500 kts | 276° |
| 2026-04-29 16:03 | 53.25695 | 0.51693 | 38404 ft | 500 kts | 276° |
| 2026-04-29 16:03 | 53.26455 | 0.40105 | 38399 ft | 501 kts | 275° |
| 2026-04-29 16:04 | 53.27200 | 0.28576 | 38391 ft | 501 kts | 275° |
| 2026-04-29 16:04 | 53.27939 | 0.16958 | 38395 ft | 503 kts | 275° |
| 2026-04-29 16:05 | 53.28670 | 0.05334 | 38410 ft | 505 kts | 275° |
| 2026-04-29 16:05 | 53.29718 | -0.06332 | 38386 ft | 507 kts | 279° |
| 2026-04-29 16:06 | 53.30971 | -0.17965 | 38397 ft | 507 kts | 279° |
| 2026-04-29 16:06 | 53.32177 | -0.29543 | 38384 ft | 508 kts | 279° |
| 2026-04-29 16:07 | 53.33159 | -0.39270 | 38384 ft | 507 kts | 278° |
| 2026-04-29 16:07 | 53.34326 | -0.50870 | 38389 ft | 507 kts | 278° |
| 2026-04-29 16:08 | 53.35496 | -0.62527 | 38378 ft | 506 kts | 278° |
| 2026-04-29 16:08 | 53.36643 | -0.74197 | 38390 ft | 506 kts | 278° |
| 2026-04-29 16:09 | 53.37755 | -0.85752 | 38390 ft | 506 kts | 278° |
| 2026-04-29 16:09 | 53.38883 | -0.97440 | 38393 ft | 506 kts | 278° |
| 2026-04-29 16:10 | 53.40024 | -1.09000 | 38392 ft | 506 kts | 278° |
| 2026-04-29 16:10 | 53.41133 | -1.20659 | 38384 ft | 506 kts | 278° |
| 2026-04-29 16:11 | 53.42207 | -1.32343 | 38380 ft | 506 kts | 278° |
| 2026-04-29 16:11 | 53.43292 | -1.43934 | 38388 ft | 506 kts | 278° |
| 2026-04-29 16:12 | 53.44380 | -1.55626 | 38375 ft | 507 kts | 278° |
| 2026-04-29 16:12 | 53.45445 | -1.67340 | 38370 ft | 507 kts | 277° |
| 2026-04-29 16:13 | 53.46497 | -1.79023 | 38363 ft | 508 kts | 277° |
| 2026-04-29 16:13 | 53.47534 | -1.90764 | 38341 ft | 508 kts | 277° |
| 2026-04-29 16:14 | 53.48538 | -2.02417 | 38333 ft | 507 kts | 277° |
| 2026-04-29 16:14 | 53.49545 | -2.14188 | 38345 ft | 506 kts | 277° |
| 2026-04-29 16:15 | 53.50534 | -2.25837 | 38349 ft | 506 kts | 277° |
| 2026-04-29 16:15 | 53.51522 | -2.37559 | 38344 ft | 505 kts | 277° |
| 2026-04-29 16:16 | 53.52491 | -2.49191 | 38345 ft | 504 kts | 277° |
| 2026-04-29 16:16 | 53.53451 | -2.60860 | 38332 ft | 503 kts | 277° |
| 2026-04-29 16:17 | 53.54401 | -2.72542 | 38324 ft | 503 kts | 277° |
| 2026-04-29 16:17 | 53.55331 | -2.84141 | 38343 ft | 503 kts | 277° |
| 2026-04-29 16:18 | 53.56258 | -2.95840 | 38343 ft | 503 kts | 277° |
| 2026-04-29 16:18 | 53.57165 | -3.07423 | 38339 ft | 503 kts | 277° |
| 2026-04-29 16:19 | 53.58066 | -3.19103 | 38338 ft | 503 kts | 277° |
| 2026-04-29 16:19 | 53.58958 | -3.30806 | 38338 ft | 503 kts | 277° |
| 2026-04-29 16:20 | 53.59833 | -3.42431 | 38328 ft | 503 kts | 277° |
| 2026-04-29 16:20 | 53.60704 | -3.54162 | 38319 ft | 503 kts | 277° |
| 2026-04-29 16:21 | 53.61565 | -3.65891 | 38311 ft | 503 kts | 277° |
| 2026-04-29 16:21 | 53.62199 | -3.77599 | 38307 ft | 503 kts | 274° |
| 2026-04-29 16:22 | 53.62611 | -3.89321 | 38302 ft | 503 kts | 273° |
| 2026-04-29 16:22 | 53.63029 | -4.01099 | 38303 ft | 502 kts | 274° |
| 2026-04-29 16:23 | 53.63478 | -4.12870 | 38301 ft | 502 kts | 274° |
| 2026-04-29 16:23 | 53.63927 | -4.24542 | 38297 ft | 501 kts | 274° |
| 2026-04-29 16:24 | 53.64367 | -4.36278 | 38295 ft | 500 kts | 274° |
| 2026-04-29 16:24 | 53.64789 | -4.47923 | 38301 ft | 499 kts | 274° |
| 2026-04-29 16:25 | 53.65202 | -4.59636 | 38297 ft | 499 kts | 274° |
| 2026-04-29 16:25 | 53.65599 | -4.71240 | 38301 ft | 498 kts | 274° |
| 2026-04-29 16:26 | 53.65987 | -4.82902 | 38302 ft | 498 kts | 274° |
| 2026-04-29 16:26 | 53.66364 | -4.94580 | 38295 ft | 498 kts | 274° |
| 2026-04-29 16:27 | 53.66730 | -5.06251 | 38297 ft | 498 kts | 273° |
| 2026-04-29 16:27 | 53.67083 | -5.17864 | 38297 ft | 498 kts | 274° |
| 2026-04-29 16:28 | 53.67427 | -5.29556 | 38290 ft | 498 kts | 274° |
| 2026-04-29 16:28 | 53.67748 | -5.41190 | 38292 ft | 498 kts | 271° |
| 2026-04-29 16:29 | 53.66945 | -5.52747 | 38306 ft | 499 kts | 256° |
| 2026-04-29 16:29 | 53.64562 | -5.63775 | 38313 ft | 499 kts | 246° |
| 2026-04-29 16:30 | 53.61701 | -5.74383 | 38299 ft | 500 kts | 245° |
| 2026-04-29 16:30 | 53.58811 | -5.85084 | 38298 ft | 500 kts | 245° |
| 2026-04-29 16:31 | 53.55978 | -5.95724 | 38294 ft | 501 kts | 246° |
| 2026-04-29 16:31 | 53.53132 | -6.06457 | 38292 ft | 501 kts | 246° |
| 2026-04-29 16:32 | 53.50291 | -6.17131 | 38297 ft | 502 kts | 246° |
| 2026-04-29 16:32 | 53.47427 | -6.27826 | 38293 ft | 502 kts | 246° |
| 2026-04-29 16:33 | 53.43113 | -6.43831 | 38294 ft | 503 kts | 246° |
| 2026-04-29 16:33 | 53.40215 | -6.54523 | 38289 ft | 503 kts | 246° |
| 2026-04-29 16:34 | 53.37303 | -6.65215 | 38294 ft | 502 kts | 246° |
| 2026-04-29 16:34 | 53.34409 | -6.75793 | 38287 ft | 502 kts | 246° |
| 2026-04-29 16:35 | 53.31488 | -6.86419 | 38281 ft | 502 kts | 246° |
| 2026-04-29 16:35 | 53.28586 | -6.96926 | 37823 ft | 490 kts | 246° |
| 2026-04-29 16:36 | 53.27150 | -7.02113 | 37024 ft | 492 kts | 246° |
| 2026-04-29 16:36 | 53.25717 | -7.07273 | 35977 ft | 500 kts | 246° |
| 2026-04-29 16:36 | 53.24234 | -7.12606 | 34855 ft | 510 kts | 246° |
| 2026-04-29 16:36 | 53.22723 | -7.18026 | 33713 ft | 518 kts | 246° |
| 2026-04-29 16:37 | 53.21192 | -7.23501 | 32615 ft | 522 kts | 246° |
| 2026-04-29 16:37 | 53.19650 | -7.28999 | 31669 ft | 522 kts | 246° |
| 2026-04-29 16:37 | 53.18126 | -7.34424 | 30745 ft | 522 kts | 246° |
| 2026-04-29 16:37 | 53.17080 | -7.38140 | 30166 ft | 521 kts | 246° |
| 2026-04-29 16:38 | 53.15048 | -7.45339 | 29130 ft | 513 kts | 246° |
| 2026-04-29 16:38 | 53.13537 | -7.50678 | 28513 ft | 505 kts | 246° |
| 2026-04-29 16:38 | 53.12044 | -7.55943 | 27876 ft | 499 kts | 246° |
| 2026-04-29 16:38 | 53.10583 | -7.61084 | 27219 ft | 494 kts | 246° |
| 2026-04-29 16:39 | 53.09119 | -7.66226 | 26528 ft | 489 kts | 246° |
| 2026-04-29 16:39 | 53.07664 | -7.71325 | 25898 ft | 484 kts | 246° |
| 2026-04-29 16:39 | 53.06223 | -7.76364 | 25270 ft | 480 kts | 246° |
| 2026-04-29 16:39 | 53.04793 | -7.81353 | 24667 ft | 476 kts | 245° |
| 2026-04-29 16:40 | 53.03371 | -7.86304 | 24070 ft | 471 kts | 246° |
| 2026-04-29 16:40 | 53.01963 | -7.91197 | 23443 ft | 467 kts | 245° |
| 2026-04-29 16:40 | 53.00563 | -7.96053 | 22838 ft | 462 kts | 245° |
| 2026-04-29 16:40 | 52.99200 | -8.00769 | 22220 ft | 457 kts | 245° |
| 2026-04-29 16:41 | 52.97834 | -8.05491 | 21622 ft | 452 kts | 245° |
| 2026-04-29 16:41 | 52.96476 | -8.10178 | 21045 ft | 447 kts | 245° |
| 2026-04-29 16:41 | 52.95129 | -8.14812 | 20476 ft | 443 kts | 245° |
| 2026-04-29 16:41 | 52.93825 | -8.19406 | 19924 ft | 437 kts | 249° |
| 2026-04-29 16:42 | 52.93014 | -8.24217 | 19339 ft | 430 kts | 262° |
| 2026-04-29 16:42 | 52.92577 | -8.29096 | 18802 ft | 424 kts | 264° |
| 2026-04-29 16:42 | 52.92195 | -8.33867 | 18255 ft | 420 kts | 264° |
| 2026-04-29 16:42 | 52.91798 | -8.38652 | 17653 ft | 416 kts | 264° |
| 2026-04-29 16:43 | 52.91378 | -8.43386 | 17065 ft | 412 kts | 263° |
| 2026-04-29 16:43 | 52.90941 | -8.48058 | 16516 ft | 408 kts | 263° |
| 2026-04-29 16:43 | 52.90494 | -8.52687 | 15949 ft | 404 kts | 263° |
| 2026-04-29 16:43 | 52.90047 | -8.57220 | 15401 ft | 401 kts | 262° |
| 2026-04-29 16:44 | 52.89596 | -8.61766 | 14853 ft | 398 kts | 263° |
| 2026-04-29 16:44 | 52.89147 | -8.66275 | 14341 ft | 395 kts | 262° |
| 2026-04-29 16:44 | 52.88701 | -8.70742 | 13797 ft | 391 kts | 262° |
| 2026-04-29 16:44 | 52.88258 | -8.75176 | 13217 ft | 388 kts | 262° |
| 2026-04-29 16:45 | 52.87816 | -8.79582 | 12654 ft | 385 kts | 262° |
| 2026-04-29 16:45 | 52.87381 | -8.83872 | 12543 ft | 370 kts | 262° |
| 2026-04-29 16:45 | 52.86837 | -8.87872 | 12383 ft | 354 kts | 250° |
| 2026-04-29 16:45 | 52.85604 | -8.91305 | 12295 ft | 339 kts | 233° |
| 2026-04-29 16:46 | 52.84159 | -8.94316 | 12204 ft | 327 kts | 232° |
| 2026-04-29 16:46 | 52.82779 | -8.97185 | 12118 ft | 316 kts | 232° |
| 2026-04-29 16:46 | 52.81433 | -8.99998 | 11997 ft | 306 kts | 233° |
| 2026-04-29 16:46 | 52.80128 | -9.02735 | 11834 ft | 300 kts | 233° |
| 2026-04-29 16:47 | 52.78845 | -9.05441 | 11564 ft | 296 kts | 233° |
| 2026-04-29 16:47 | 52.77574 | -9.08124 | 11222 ft | 296 kts | 233° |
| 2026-04-29 16:47 | 52.76309 | -9.10797 | 10907 ft | 295 kts | 233° |
| 2026-04-29 16:47 | 52.75050 | -9.13462 | 10617 ft | 293 kts | 233° |
| 2026-04-29 16:48 | 52.73811 | -9.16083 | 10336 ft | 292 kts | 233° |
| 2026-04-29 16:48 | 52.72561 | -9.18724 | 10059 ft | 290 kts | 233° |
| 2026-04-29 16:48 | 52.71320 | -9.21344 | 9742 ft | 289 kts | 233° |
| 2026-04-29 16:48 | 52.70077 | -9.23962 | 9420 ft | 288 kts | 233° |
| 2026-04-29 16:49 | 52.68859 | -9.26527 | 9085 ft | 288 kts | 233° |
| 2026-04-29 16:49 | 52.67638 | -9.29072 | 8658 ft | 278 kts | 230° |
| 2026-04-29 16:49 | 52.66125 | -9.30988 | 7961 ft | 274 kts | 200° |
| 2026-04-29 16:49 | 52.64273 | -9.31455 | 7292 ft | 268 kts | 171° |
| 2026-04-29 16:50 | 52.62523 | -9.30622 | 6833 ft | 253 kts | 149° |
| 2026-04-29 16:50 | 52.61112 | -9.29084 | 6562 ft | 234 kts | 139° |
| 2026-04-29 16:50 | 52.59894 | -9.27503 | 6255 ft | 219 kts | 138° |
| 2026-04-29 16:50 | 52.58747 | -9.26002 | 5997 ft | 201 kts | 138° |
| 2026-04-29 16:51 | 52.57694 | -9.24602 | 5599 ft | 190 kts | 131° |
| 2026-04-29 16:51 | 52.57066 | -9.22795 | 5094 ft | 178 kts | 98° |
| 2026-04-29 16:51 | 52.56887 | -9.20783 | 4721 ft | 175 kts | 91° |
| 2026-04-29 16:51 | 52.57244 | -9.18971 | 4240 ft | 170 kts | 47° |
| 2026-04-29 16:52 | 52.58066 | -9.17595 | 3849 ft | 170 kts | 47° |
| 2026-04-29 16:52 | 52.58827 | -9.16158 | 3501 ft | 165 kts | 48° |
| 2026-04-29 16:52 | 52.59584 | -9.14802 | 3210 ft | 158 kts | 49° |
| 2026-04-29 16:52 | 52.60328 | -9.13361 | 3035 ft | 170 kts | 51° |
| 2026-04-29 16:53 | 52.61051 | -9.11864 | 2962 ft | 165 kts | 51° |
| 2026-04-29 16:53 | 52.61756 | -9.10389 | 2889 ft | 169 kts | 51° |
| 2026-04-29 16:53 | 52.62531 | -9.08922 | 2776 ft | 170 kts | 46° |
| 2026-04-29 16:53 | 52.63359 | -9.07470 | 2428 ft | 172 kts | 46° |
| 2026-04-29 16:54 | 52.63900 | -9.06505 | 2037 ft | 175 kts | 46° |
| 2026-04-29 16:54 | 52.64991 | -9.04464 | 1388 ft | 174 kts | 49° |
| 2026-04-29 16:54 | 52.65675 | -9.02908 | 1132 ft | 161 kts | 55° |
| 2026-04-29 16:54 | 52.66239 | -9.01413 | 952 ft | 152 kts | 56° |
| 2026-04-29 16:55 | 52.66794 | -8.99951 | 824 ft | 147 kts | 54° |
| 2026-04-29 16:55 | 52.67173 | -8.99051 | 723 ft | 142 kts | 53° |
| 2026-04-29 16:55 | 52.67756 | -8.97780 | 573 ft | 136 kts | 54° |
| 2026-04-29 16:55 | 52.68306 | -8.96572 | 391 ft | 127 kts | 54° |
| 2026-04-29 16:56 | 52.68845 | -8.95397 | 270 ft | 133 kts | 54° |
| 2026-04-29 16:56 | 52.69410 | -8.94159 | 100 ft | 133 kts | 53° |
| 2026-04-29 16:56 | 52.69938 | -8.93029 | 49 ft | 104 kts | 53° |
| 2026-04-29 16:56 | 52.70243 | -8.92384 | 42 ft | 38 kts | 51° |
| 2026-04-29 16:57 | 52.70357 | -8.92146 | 41 ft | 25 kts | 52° |
| 2026-04-29 16:57 | 52.70464 | -8.91919 | 39 ft | 25 kts | 52° |
| 2026-04-29 16:57 | 52.70571 | -8.91688 | 35 ft | 25 kts | 52° |
| 2026-04-29 16:57 | 52.70679 | -8.91457 | 33 ft | 24 kts | 52° |
| 2026-04-29 16:58 | 52.70762 | -8.91265 | 32 ft | 20 kts | 71° |
| 2026-04-29 16:58 | 52.70692 | -8.91160 | 33 ft | 15 kts | 167° |
| 2026-04-29 16:58 | 52.70590 | -8.91124 | 34 ft | 15 kts | 168° |
| 2026-04-29 16:58 | 52.70488 | -8.91090 | 34 ft | 15 kts | 170° |
| 2026-04-29 16:59 | 52.70386 | -8.91061 | 35 ft | 15 kts | 170° |
| 2026-04-29 16:59 | 52.70283 | -8.91031 | 35 ft | 15 kts | 170° |
| 2026-04-29 16:59 | 52.70180 | -8.91017 | 36 ft | 15 kts | 191° |
| 2026-04-29 16:59 | 52.70083 | -8.91072 | 37 ft | 15 kts | 199° |
| 2026-04-29 17:00 | 52.69920 | -8.91166 | 38 ft | 37 kts | 199° |
| 2026-04-29 17:00 | 52.69718 | -8.91277 | 40 ft | 22 kts | 198° |
| 2026-04-29 17:00 | 52.69573 | -8.91353 | 42 ft | 22 kts | 198° |
| 2026-04-29 17:00 | 52.69428 | -8.91432 | 43 ft | 22 kts | 198° |
| 2026-04-29 17:01 | 52.69295 | -8.91506 | 44 ft | 15 kts | 198° |
| 2026-04-29 17:01 | 52.69261 | -8.91632 | 45 ft | 14 kts | 309° |
| 2026-04-29 17:01 | 52.69335 | -8.91736 | 45 ft | 14 kts | 330° |
| 2026-04-29 17:01 | 52.69420 | -8.91822 | 45 ft | 14 kts | 308° |
| 2026-04-29 17:02 | 52.69454 | -8.91974 | 46 ft | 14 kts | 284° |
| 2026-04-29 17:02 | 52.69476 | -8.92135 | 46 ft | 14 kts | 283° |
| 2026-04-29 17:02 | 52.69497 | -8.92284 | 47 ft | 11 kts | 265° |
| 2026-04-29 17:02 | 52.69477 | -8.92406 | 48 ft | 11 kts | 274° |
| 2026-04-29 17:03 | 52.69470 | -8.92510 | 48 ft | 8 kts | 225° |
| 2026-04-29 17:03 | 52.69415 | -8.92526 | 49 ft | 6 kts | 185° |
| 2026-04-29 17:03 | 52.69409 | -8.92527 | 49 ft | 0 kts | 185° |